Dojun Brave — DSPF8 — position and weather

sailwx.info

Track history (hours):
 
Tides and Currents Weather Stations Pressure Air Temp Water Temp Dewpoint Dewpoint Depression Visibility Wind Speed Wind Dir Waves Ship Positions

Dojun Brave

Last reported at 2018-Feb-07 22:30 UTC. Time now 2018-Feb-23 03:06 UTC.
Position N 34°22' E 130°26'.
Warning: this ship's position is 15 days out of date.

Length 80 m; draft 5.3 m.

Type: Cargo ship. MMSI: 440917000.

Date/timePositionNaut miles runAvg speedWind from/ knotsBaromVisibWave heightAir tempDewpointWater temp
2018-Feb-07 22:30N 34°22' E 130°26'4 8.6
2018-Feb-07 22:00N 34°18' E 130°29'4 8.7
2018-Feb-07 21:30N 34°15' E 130°33'98 8.1
2018-Feb-07 09:30N 33°53' E 132°28'5 9.9
2018-Feb-07 09:00N 33°57' E 132°32'510.1
2018-Feb-07 08:30N 34°01' E 132°36'5 9.4
2018-Feb-07 08:00N 34°05' E 132°37'5 9.6
2018-Feb-07 07:30N 34°10' E 132°36'3 0.1
2018-Feb-05 07:47N 34°13' E 132°36'1 3.0
2018-Feb-05 07:30N 34°12' E 132°35'1 0.1
2018-Feb-04 23:55N 34°12' E 132°37'0 0.1
2018-Feb-04 23:30N 34°12' E 132°37'0 0.0
2018-Feb-04 23:00N 34°12' E 132°37'0 0.0
2018-Feb-04 22:27N 34°12' E 132°37'0 0.0
2018-Feb-04 21:57N 34°12' E 132°37'0 0.0
2018-Feb-04 21:30N 34°12' E 132°37'0 0.0
2018-Feb-04 20:39N 34°12' E 132°37'0 0.0
2018-Feb-04 19:57N 34°12' E 132°37'0 0.0
2018-Feb-04 19:30N 34°12' E 132°37'0 0.0
2018-Feb-04 18:51N 34°12' E 132°37'0 0.1
2018-Feb-04 18:30N 34°12' E 132°37'0 0.0
2018-Feb-04 17:39N 34°12' E 132°37'0 0.0
2018-Feb-04 17:27N 34°12' E 132°37'0 0.0
2018-Feb-04 14:30N 34°12' E 132°37'0 0.0
2018-Feb-04 13:55N 34°12' E 132°37'1 3.6
2018-Feb-04 13:30N 34°12' E 132°38'1 0.1
2018-Feb-03 23:38N 34°12' E 132°37'0 0.3
2018-Feb-03 23:29N 34°12' E 132°37'1 0.5
2018-Feb-03 21:49N 34°12' E 132°38'1 2.9
2018-Feb-03 21:27N 34°12' E 132°37'0 0.0
2018-Feb-03 20:42N 34°12' E 132°37'0 0.1
2018-Feb-03 20:27N 34°12' E 132°37'0 0.0
2018-Feb-03 20:00N 34°12' E 132°37'0 0.0
2018-Feb-03 18:00N 34°12' E 132°37'0 0.0
2018-Feb-03 16:36N 34°12' E 132°37'0 0.1
2018-Feb-03 16:00N 34°12' E 132°36'0 0.1
2018-Feb-03 15:27N 34°12' E 132°37'0 0.0
2018-Feb-03 14:54N 34°12' E 132°37'0 0.0
2018-Feb-03 14:30N 34°12' E 132°37'0 0.0
2018-Feb-03 13:42N 34°12' E 132°37'0 0.1
2018-Feb-03 13:12N 34°12' E 132°37'0 0.0
2018-Feb-03 12:45N 34°12' E 132°37'0 0.0
2018-Feb-03 12:15N 34°12' E 132°37'0 0.0
2018-Feb-03 11:00N 34°12' E 132°37'0 0.0
2018-Feb-03 10:15N 34°12' E 132°37'0 0.1
2018-Feb-03 09:57N 34°12' E 132°37'0 0.0
2018-Feb-03 09:12N 34°12' E 132°37'0 0.0
2018-Feb-03 08:57N 34°12' E 132°37'0 0.0
2018-Feb-03 08:24N 34°12' E 132°37'0 0.0
2018-Feb-03 07:57N 34°12' E 132°37'0 0.0
2018-Feb-03 00:36N 34°12' E 132°37'0 0.0
2018-Feb-03 00:12N 34°12' E 132°37'0 0.0
2018-Feb-03 00:00N 34°12' E 132°37'0 0.0
2018-Feb-02 23:09N 34°12' E 132°37'0 0.0
2018-Feb-02 22:45N 34°12' E 132°37'0 0.0
2018-Feb-02 22:00N 34°12' E 132°37'0 0.0
2018-Feb-02 21:30N 34°12' E 132°37'0 0.1
2018-Feb-02 21:00N 34°12' E 132°36'0 0.0
2018-Feb-02 20:30N 34°12' E 132°36'0 0.0
2018-Feb-02 20:00N 34°12' E 132°36'0 0.0
2018-Feb-02 18:21N 34°12' E 132°36'0 0.0
2018-Feb-02 17:57N 34°12' E 132°36'0 0.0
2018-Feb-02 17:30N 34°12' E 132°36'0 0.0
2018-Feb-02 16:06N 34°12' E 132°36'0 0.0
2018-Feb-02 15:30N 34°12' E 132°36'3 2.6
2018-Feb-02 14:30N 34°10' E 132°37'510.2
2018-Feb-02 14:00N 34°05' E 132°37'511.0
2018-Feb-02 13:31N 33°60' E 132°35'710.9
2018-Feb-02 12:54N 33°55' E 132°29'2110.5
2018-Feb-02 10:52N 33°46' E 132°05'10 9.9
2018-Feb-02 09:51N 33°45' E 131°53'4 9.8
2018-Feb-02 09:29N 33°45' E 131°49'5 9.7
2018-Feb-02 09:00N 33°46' E 131°44'5 9.9
2018-Feb-02 08:31N 33°46' E 131°38'510.2
2018-Feb-02 08:00N 33°47' E 131°32'510.4
2018-Feb-02 07:30N 33°49' E 131°26'510.6
2018-Feb-02 07:01N 33°50' E 131°19'510.9
2018-Feb-02 06:30N 33°51' E 131°13'510.6
2018-Feb-02 06:00N 33°54' E 131°08'510.4
2018-Feb-02 05:30N 33°57' E 131°03'4 8.4
2018-Feb-02 05:00N 33°58' E 130°58'4 7.5
2018-Feb-02 04:31N 33°55' E 130°56'2 4.0
2018-Feb-02 03:58N 33°54' E 130°53'0 0.0
2018-Feb-02 03:28N 33°54' E 130°53'0 0.0
2018-Feb-02 02:58N 33°54' E 130°53'0 0.0
2018-Feb-02 02:28N 33°54' E 130°53'0 0.0
2018-Feb-02 01:58N 33°54' E 130°53'0 0.0
2018-Feb-02 01:28N 33°54' E 130°53'0 0.0
2018-Feb-02 00:58N 33°54' E 130°53'0 0.0
2018-Feb-02 00:28N 33°54' E 130°53'0 0.0
2018-Feb-01 23:55N 33°54' E 130°53'0 0.0
2018-Feb-01 23:28N 33°54' E 130°53'0 0.0
2018-Feb-01 22:58N 33°54' E 130°53'0 0.0
2018-Feb-01 21:58N 33°54' E 130°53'0 0.0
2018-Feb-01 21:28N 33°54' E 130°53'0 0.0
2018-Feb-01 19:29N 33°54' E 130°53'0 0.0
2018-Feb-01 18:58N 33°54' E 130°53'0 0.0
2018-Feb-01 18:28N 33°54' E 130°53'0 0.0
2018-Feb-01 17:58N 33°54' E 130°53'0 0.0
2018-Feb-01 17:28N 33°54' E 130°53'0 0.0
2018-Feb-01 16:58N 33°54' E 130°53'0 0.0
2018-Feb-01 16:28N 33°54' E 130°53'0 0.0
2018-Feb-01 15:58N 33°54' E 130°53'0 0.0
2018-Feb-01 15:28N 33°54' E 130°53'0 0.0
2018-Feb-01 14:58N 33°54' E 130°53'0 0.0
2018-Feb-01 13:28N 33°54' E 130°53'0 0.0
2018-Feb-01 12:58N 33°54' E 130°53'0 0.0
2018-Feb-01 12:28N 33°54' E 130°53'0 0.0
2018-Feb-01 11:58N 33°54' E 130°53'0 0.0
2018-Feb-01 10:58N 33°54' E 130°53'0 0.0
2018-Feb-01 10:28N 33°54' E 130°53'0 0.0
2018-Feb-01 09:58N 33°54' E 130°53'0 0.0
2018-Feb-01 09:28N 33°54' E 130°53'0 0.0
2018-Feb-01 08:58N 33°54' E 130°53'0 0.0
2018-Feb-01 08:28N 33°54' E 130°53'0 0.0
2018-Feb-01 07:25N 33°54' E 130°53'0 0.0
2018-Feb-01 06:58N 33°54' E 130°53'0 0.0
2018-Feb-01 06:28N 33°54' E 130°53'0 0.0
2018-Feb-01 05:58N 33°54' E 130°53'0 0.0
2018-Feb-01 05:28N 33°54' E 130°53'0 0.0
2018-Feb-01 04:58N 33°54' E 130°53'0 0.0
2018-Feb-01 04:28N 33°54' E 130°53'0 0.0
2018-Feb-01 03:58N 33°54' E 130°53'0 0.0
2018-Feb-01 02:58N 33°54' E 130°53'0 0.0
2018-Feb-01 02:28N 33°54' E 130°53'0 0.0
2018-Feb-01 01:58N 33°54' E 130°53'0 0.0
2018-Feb-01 01:25N 33°54' E 130°53'0 0.0
2018-Feb-01 00:58N 33°54' E 130°53'0 0.0
2018-Feb-01 00:28N 33°54' E 130°53'0 0.0
2018-Feb-01 00:00N 33°54' E 130°53'0 0.1
2018-Jan-31 23:00N 33°54' E 130°53'2 3.8
2018-Jan-31 22:30N 33°56' E 130°52'12 7.7
2018-Jan-31 21:00N 34°04' E 130°42'4 8.4
2018-Jan-31 20:30N 34°08' E 130°42'4 7.4
2018-Jan-31 20:00N 34°09' E 130°38'4 8.7
2018-Jan-31 19:31N 34°13' E 130°40'5 9.2
2018-Jan-31 18:59N 34°18' E 130°38'4 9.3
2018-Jan-31 18:30N 34°22' E 130°35'5 9.2
2018-Jan-31 17:59N 34°26' E 130°32'  
Track history (hours):
 
Tides and Currents Weather Stations Pressure Air Temp Water Temp Dewpoint Dewpoint Depression Visibility Wind Speed Wind Dir Waves Ship Positions

Dojun Brave

Last reported at 2018-Feb-07 22:30 UTC. Time now 2018-Feb-23 03:06 UTC.
Position N 34°22' E 130°26'.
Warning: this ship's position is 15 days out of date.

Length 80 m; draft 5.3 m.

Type: Cargo ship. MMSI: 440917000.

Date/timePositionNaut miles runAvg speedWind from/ knotsBaromVisibWave heightAir tempDewpointWater temp
2018-Feb-07 22:30N 34°22' E 130°26'4 8.6
2018-Feb-07 22:00N 34°18' E 130°29'4 8.7
2018-Feb-07 21:30N 34°15' E 130°33'98 8.1
2018-Feb-07 09:30N 33°53' E 132°28'5 9.9
2018-Feb-07 09:00N 33°57' E 132°32'510.1
2018-Feb-07 08:30N 34°01' E 132°36'5 9.4
2018-Feb-07 08:00N 34°05' E 132°37'5 9.6
2018-Feb-07 07:30N 34°10' E 132°36'3 0.1
2018-Feb-05 07:47N 34°13' E 132°36'1 3.0
2018-Feb-05 07:30N 34°12' E 132°35'1 0.1
2018-Feb-04 23:55N 34°12' E 132°37'0 0.1
2018-Feb-04 23:30N 34°12' E 132°37'0 0.0
2018-Feb-04 23:00N 34°12' E 132°37'0 0.0
2018-Feb-04 22:27N 34°12' E 132°37'0 0.0
2018-Feb-04 21:57N 34°12' E 132°37'0 0.0
2018-Feb-04 21:30N 34°12' E 132°37'0 0.0
2018-Feb-04 20:39N 34°12' E 132°37'0 0.0
2018-Feb-04 19:57N 34°12' E 132°37'0 0.0
2018-Feb-04 19:30N 34°12' E 132°37'0 0.0
2018-Feb-04 18:51N 34°12' E 132°37'0 0.1
2018-Feb-04 18:30N 34°12' E 132°37'0 0.0
2018-Feb-04 17:39N 34°12' E 132°37'0 0.0
2018-Feb-04 17:27N 34°12' E 132°37'0 0.0
2018-Feb-04 14:30N 34°12' E 132°37'0 0.0
2018-Feb-04 13:55N 34°12' E 132°37'1 3.6
2018-Feb-04 13:30N 34°12' E 132°38'1 0.1
2018-Feb-03 23:38N 34°12' E 132°37'0 0.3
2018-Feb-03 23:29N 34°12' E 132°37'1 0.5
2018-Feb-03 21:49N 34°12' E 132°38'1 2.9
2018-Feb-03 21:27N 34°12' E 132°37'0 0.0
2018-Feb-03 20:42N 34°12' E 132°37'0 0.1
2018-Feb-03 20:27N 34°12' E 132°37'0 0.0
2018-Feb-03 20:00N 34°12' E 132°37'0 0.0
2018-Feb-03 18:00N 34°12' E 132°37'0 0.0
2018-Feb-03 16:36N 34°12' E 132°37'0 0.1
2018-Feb-03 16:00N 34°12' E 132°36'0 0.1
2018-Feb-03 15:27N 34°12' E 132°37'0 0.0
2018-Feb-03 14:54N 34°12' E 132°37'0 0.0
2018-Feb-03 14:30N 34°12' E 132°37'0 0.0
2018-Feb-03 13:42N 34°12' E 132°37'0 0.1
2018-Feb-03 13:12N 34°12' E 132°37'0 0.0
2018-Feb-03 12:45N 34°12' E 132°37'0 0.0
2018-Feb-03 12:15N 34°12' E 132°37'0 0.0
2018-Feb-03 11:00N 34°12' E 132°37'0 0.0
2018-Feb-03 10:15N 34°12' E 132°37'0 0.1
2018-Feb-03 09:57N 34°12' E 132°37'0 0.0
2018-Feb-03 09:12N 34°12' E 132°37'0 0.0
2018-Feb-03 08:57N 34°12' E 132°37'0 0.0
2018-Feb-03 08:24N 34°12' E 132°37'0 0.0
2018-Feb-03 07:57N 34°12' E 132°37'0 0.0
2018-Feb-03 00:36N 34°12' E 132°37'0 0.0
2018-Feb-03 00:12N 34°12' E 132°37'0 0.0
2018-Feb-03 00:00N 34°12' E 132°37'0 0.0
2018-Feb-02 23:09N 34°12' E 132°37'0 0.0
2018-Feb-02 22:45N 34°12' E 132°37'0 0.0
2018-Feb-02 22:00N 34°12' E 132°37'0 0.0
2018-Feb-02 21:30N 34°12' E 132°37'0 0.1
2018-Feb-02 21:00N 34°12' E 132°36'0 0.0
2018-Feb-02 20:30N 34°12' E 132°36'0 0.0
2018-Feb-02 20:00N 34°12' E 132°36'0 0.0
2018-Feb-02 18:21N 34°12' E 132°36'0 0.0
2018-Feb-02 17:57N 34°12' E 132°36'0 0.0
2018-Feb-02 17:30N 34°12' E 132°36'0 0.0
2018-Feb-02 16:06N 34°12' E 132°36'0 0.0
2018-Feb-02 15:30N 34°12' E 132°36'3 2.6
2018-Feb-02 14:30N 34°10' E 132°37'510.2
2018-Feb-02 14:00N 34°05' E 132°37'511.0
2018-Feb-02 13:31N 33°60' E 132°35'710.9
2018-Feb-02 12:54N 33°55' E 132°29'2110.5
2018-Feb-02 10:52N 33°46' E 132°05'10 9.9
2018-Feb-02 09:51N 33°45' E 131°53'4 9.8
2018-Feb-02 09:29N 33°45' E 131°49'5 9.7
2018-Feb-02 09:00N 33°46' E 131°44'5 9.9
2018-Feb-02 08:31N 33°46' E 131°38'510.2
2018-Feb-02 08:00N 33°47' E 131°32'510.4
2018-Feb-02 07:30N 33°49' E 131°26'510.6
2018-Feb-02 07:01N 33°50' E 131°19'510.9
2018-Feb-02 06:30N 33°51' E 131°13'510.6
2018-Feb-02 06:00N 33°54' E 131°08'510.4
2018-Feb-02 05:30N 33°57' E 131°03'4 8.4
2018-Feb-02 05:00N 33°58' E 130°58'4 7.5
2018-Feb-02 04:31N 33°55' E 130°56'2 4.0
2018-Feb-02 03:58N 33°54' E 130°53'0 0.0
2018-Feb-02 03:28N 33°54' E 130°53'0 0.0
2018-Feb-02 02:58N 33°54' E 130°53'0 0.0
2018-Feb-02 02:28N 33°54' E 130°53'0 0.0
2018-Feb-02 01:58N 33°54' E 130°53'0 0.0
2018-Feb-02 01:28N 33°54' E 130°53'0 0.0
2018-Feb-02 00:58N 33°54' E 130°53'0 0.0
2018-Feb-02 00:28N 33°54' E 130°53'0 0.0
2018-Feb-01 23:55N 33°54' E 130°53'0 0.0
2018-Feb-01 23:28N 33°54' E 130°53'0 0.0
2018-Feb-01 22:58N 33°54' E 130°53'0 0.0
2018-Feb-01 21:58N 33°54' E 130°53'0 0.0
2018-Feb-01 21:28N 33°54' E 130°53'0 0.0
2018-Feb-01 19:29N 33°54' E 130°53'0 0.0
2018-Feb-01 18:58N 33°54' E 130°53'0 0.0
2018-Feb-01 18:28N 33°54' E 130°53'0 0.0
2018-Feb-01 17:58N 33°54' E 130°53'0 0.0
2018-Feb-01 17:28N 33°54' E 130°53'0 0.0
2018-Feb-01 16:58N 33°54' E 130°53'0 0.0
2018-Feb-01 16:28N 33°54' E 130°53'0 0.0
2018-Feb-01 15:58N 33°54' E 130°53'0 0.0
2018-Feb-01 15:28N 33°54' E 130°53'0 0.0
2018-Feb-01 14:58N 33°54' E 130°53'0 0.0
2018-Feb-01 13:28N 33°54' E 130°53'0 0.0
2018-Feb-01 12:58N 33°54' E 130°53'0 0.0
2018-Feb-01 12:28N 33°54' E 130°53'0 0.0
2018-Feb-01 11:58N 33°54' E 130°53'0 0.0
2018-Feb-01 10:58N 33°54' E 130°53'0 0.0
2018-Feb-01 10:28N 33°54' E 130°53'0 0.0
2018-Feb-01 09:58N 33°54' E 130°53'0 0.0
2018-Feb-01 09:28N 33°54' E 130°53'0 0.0
2018-Feb-01 08:58N 33°54' E 130°53'0 0.0
2018-Feb-01 08:28N 33°54' E 130°53'0 0.0
2018-Feb-01 07:25N 33°54' E 130°53'0 0.0
2018-Feb-01 06:58N 33°54' E 130°53'0 0.0
2018-Feb-01 06:28N 33°54' E 130°53'0 0.0
2018-Feb-01 05:58N 33°54' E 130°53'0 0.0
2018-Feb-01 05:28N 33°54' E 130°53'0 0.0
2018-Feb-01 04:58N 33°54' E 130°53'0 0.0
2018-Feb-01 04:28N 33°54' E 130°53'0 0.0
2018-Feb-01 03:58N 33°54' E 130°53'0 0.0
2018-Feb-01 02:58N 33°54' E 130°53'0 0.0
2018-Feb-01 02:28N 33°54' E 130°53'0 0.0
2018-Feb-01 01:58N 33°54' E 130°53'0 0.0
2018-Feb-01 01:25N 33°54' E 130°53'0 0.0
2018-Feb-01 00:58N 33°54' E 130°53'0 0.0
2018-Feb-01 00:28N 33°54' E 130°53'0 0.0
2018-Feb-01 00:00N 33°54' E 130°53'0 0.1
2018-Jan-31 23:00N 33°54' E 130°53'2 3.8
2018-Jan-31 22:30N 33°56' E 130°52'12 7.7
2018-Jan-31 21:00N 34°04' E 130°42'4 8.4
2018-Jan-31 20:30N 34°08' E 130°42'4 7.4
2018-Jan-31 20:00N 34°09' E 130°38'4 8.7
2018-Jan-31 19:31N 34°13' E 130°40'5 9.2
2018-Jan-31 18:59N 34°18' E 130°38'4 9.3
2018-Jan-31 18:30N 34°22' E 130°35'5 9.2
2018-Jan-31 17:59N 34°26' E 130°32'  

Dump ship's entire track history